Time;durP1;ratioP1;P1;durP2;ratioP2;P2;SDS_P1;SDS_P2;PMS_P1;PMS_P2;Temp;Humidity;BMP_temperature;BMP_pressure;BME280_temperature;BME280_humidity;BME280_pressure;Samples;Min_cycle;Max_cycle;Signal;HPM_P1;HPM_P2
2023/04/05 00:02:18;;;;;;;0.77;0.77;;;;;;;6.37;100.00;99708.84;5054608;28;20230;-75
2023/04/05 00:04:50;;;;;;;1.00;1.00;;;;;;;6.37;100.00;99702.00;5054306;28;20199;-75
2023/04/05 00:07:18;;;;;;;0.90;0.90;;;;;;;6.46;100.00;99712.50;5054072;28;20199;-74
2023/04/05 00:09:46;;;;;;;1.00;1.00;;;;;;;6.37;100.00;99704.56;5054300;28;20235;-75
2023/04/05 00:12:13;;;;;;;0.90;0.90;;;;;;;6.18;100.00;99686.91;5054157;28;20210;-74
2023/04/05 00:14:40;;;;;;;0.90;0.90;;;;;;;6.17;100.00;99700.59;5054773;28;20203;-75
2023/04/05 00:17:07;;;;;;;1.10;1.10;;;;;;;6.16;100.00;99706.59;5054163;28;20253;-75
2023/04/05 00:19:36;;;;;;;1.03;1.03;;;;;;;6.21;100.00;99710.13;5054168;28;20203;-75
2023/04/05 00:22:04;;;;;;;1.00;1.00;;;;;;;6.19;100.00;99711.81;5053874;28;20684;-74
2023/04/05 00:24:32;;;;;;;1.00;1.00;;;;;;;6.12;100.00;99709.91;5053898;28;20199;-76
2023/04/05 00:27:02;;;;;;;1.10;1.10;;;;;;;6.13;100.00;99693.66;5054223;28;20557;-74
2023/04/05 00:29:28;;;;;;;1.00;1.00;;;;;;;6.02;100.00;99718.22;5054404;28;20199;-75
2023/04/05 00:31:56;;;;;;;1.07;1.07;;;;;;;5.97;100.00;99712.94;5053811;28;20191;-75
2023/04/05 00:34:22;;;;;;;0.83;0.83;;;;;;;5.99;100.00;99713.00;5053673;28;20200;-74
2023/04/05 00:36:50;;;;;;;0.90;0.90;;;;;;;5.95;100.00;99693.16;5053688;28;20547;-74
2023/04/05 00:39:17;;;;;;;0.83;0.83;;;;;;;5.48;100.00;99637.81;5053953;28;20200;-74
2023/04/05 00:41:44;;;;;;;1.00;1.00;;;;;;;5.71;100.00;99710.44;5053490;28;20218;-75
2023/04/05 00:44:12;;;;;;;2.60;2.50;;;;;;;5.98;100.00;99716.38;5053594;28;20687;-74
2023/04/05 00:46:39;;;;;;;0.80;0.80;;;;;;;5.91;100.00;99714.47;5053344;28;20203;-75
2023/04/05 00:49:06;;;;;;;0.80;0.80;;;;;;;5.83;100.00;99703.06;5053497;28;20593;-74
2023/04/05 00:51:33;;;;;;;0.77;0.77;;;;;;;5.98;100.00;99713.81;5018675;28;20210;-75
2023/04/05 00:54:02;;;;;;;6.33;2.07;;;;;;;5.79;100.00;99717.53;5035698;28;20682;-75
2023/04/05 00:56:30;;;;;;;0.90;0.90;;;;;;;5.77;100.00;99714.06;5052770;28;20222;-74
2023/04/05 00:58:57;;;;;;;0.70;0.70;;;;;;;5.73;100.00;99719.06;5053313;28;20195;-74
2023/04/05 01:01:26;;;;;;;0.80;0.80;;;;;;;5.85;100.00;99709.13;5053186;28;20228;-74
2023/04/05 01:03:58;;;;;;;0.90;0.90;;;;;;;6.01;100.00;99713.00;5034009;28;20224;-74
2023/04/05 01:06:53;;;;;;;0.70;0.70;;;;;;;5.67;100.00;99672.63;5035025;28;20654;-74
2023/04/05 01:09:33;;;;;;;0.93;0.93;;;;;;;5.82;100.00;99704.75;5053394;28;20230;-74
2023/04/05 01:12:05;;;;;;;0.90;0.90;;;;;;;5.83;100.00;99709.09;5052584;28;20282;-73
2023/04/05 01:14:32;;;;;;;1.10;1.10;;;;;;;5.57;100.00;99717.75;5017329;28;20242;-75
2023/04/05 01:16:59;;;;;;;1.23;1.23;;;;;;;5.38;100.00;99698.38;5053420;28;20662;-73
2023/04/05 01:19:28;;;;;;;1.30;1.30;;;;;;;5.53;100.00;99720.22;5053023;28;20194;-75
2023/04/05 01:22:46;;;;;;;2.20;2.13;;;;;;;5.49;100.00;99716.69;5052976;28;20228;-73
2023/04/05 01:25:35;;;;;;;1.10;1.10;;;;;;;4.96;100.00;99625.13;4991080;28;20208;-76
2023/04/05 01:28:34;;;;;;;0.80;0.80;;;;;;;5.24;100.00;99707.38;4991355;28;20581;-75
2023/04/05 01:31:08;;;;;;;1.23;1.23;;;;;;;5.24;100.00;99716.78;4991537;28;20210;-75
2023/04/05 01:33:42;;;;;;;0.80;0.80;;;;;;;5.09;100.00;99691.50;4990866;28;20677;-74
2023/04/05 01:36:17;;;;;;;0.80;0.80;;;;;;;5.14;100.00;99710.47;4926911;28;20205;-75
2023/04/05 01:38:48;;;;;;;0.70;0.70;;;;;;;5.21;100.00;99726.97;4991188;28;20233;-74
2023/04/05 01:41:15;;;;;;;0.80;0.80;;;;;;;5.11;100.00;99719.78;4991250;28;20200;-74
2023/04/05 01:43:42;;;;;;;1.30;1.30;;;;;;;5.02;100.00;99702.41;4991002;28;20233;-74
2023/04/05 01:46:10;;;;;;;1.00;1.00;;;;;;;5.21;100.00;99714.97;4991312;28;20617;-75
2023/04/05 01:48:37;;;;;;;0.90;0.90;;;;;;;5.06;100.00;99717.09;4957054;28;20201;-74
2023/04/05 01:51:04;;;;;;;0.80;0.80;;;;;;;4.95;100.00;99723.59;4958118;28;20197;-75
2023/04/05 01:53:31;;;;;;;0.90;0.90;;;;;;;5.11;100.00;99714.66;4990793;28;20346;-74
2023/04/05 01:56:00;;;;;;;6.80;2.20;;;;;;;5.18;100.00;99722.59;5024099;28;20242;-75
2023/04/05 01:58:27;;;;;;;1.20;1.20;;;;;;;5.21;100.00;99716.69;5052007;28;20310;-74
2023/04/05 02:00:54;;;;;;;1.10;1.10;;;;;;;5.15;100.00;99721.63;5050335;28;20614;-73
2023/04/05 02:03:23;;;;;;;0.77;0.77;;;;;;;5.10;100.00;99729.19;5052084;28;20254;-75
2023/04/05 02:05:50;;;;;;;1.30;1.30;;;;;;;5.00;100.00;99727.16;5052292;28;20199;-74
2023/04/05 02:08:17;;;;;;;0.90;0.90;;;;;;;5.02;100.00;99725.53;5052211;28;20286;-74
2023/04/05 02:10:44;;;;;;;0.97;0.97;;;;;;;5.05;100.00;99730.75;5052304;28;20561;-75
2023/04/05 02:13:12;;;;;;;0.90;0.90;;;;;;;4.83;100.00;99733.47;5017159;28;20199;-74
2023/04/05 02:15:39;;;;;;;1.90;1.50;;;;;;;4.92;100.00;99723.50;5050859;28;20218;-74
2023/04/05 02:18:06;;;;;;;0.90;0.90;;;;;;;4.89;100.00;99710.53;5052135;28;20200;-75
2023/04/05 02:20:34;;;;;;;1.80;1.80;;;;;;;5.05;100.00;99725.63;5052079;28;20242;-73
2023/04/05 02:23:01;;;;;;;1.00;1.00;;;;;;;4.90;100.00;99714.84;5051936;28;20222;-75
2023/04/05 02:25:28;;;;;;;1.10;1.10;;;;;;;4.86;100.00;99733.56;5056014;28;20195;-74
2023/04/05 02:27:55;;;;;;;1.00;1.00;;;;;;;4.90;100.00;99735.41;5038408;28;20298;-74
2023/04/05 02:30:22;;;;;;;0.87;0.87;;;;;;;3.86;100.00;99550.66;5038139;28;20199;-74
2023/04/05 02:32:49;;;;;;;0.90;0.90;;;;;;;4.83;100.00;99729.22;5056522;28;20199;-75
2023/04/05 02:35:16;;;;;;;0.87;0.87;;;;;;;4.88;100.00;99732.81;5021095;28;20210;-75
2023/04/05 02:37:44;;;;;;;0.90;0.90;;;;;;;4.92;100.00;99728.66;5051871;28;20204;-75
2023/04/05 02:40:13;;;;;;;1.10;1.10;;;;;;;4.89;100.00;99728.50;5051704;28;20292;-74
2023/04/05 02:42:40;;;;;;;0.80;0.80;;;;;;;4.68;100.00;99707.28;5051590;28;20229;-75
2023/04/05 02:45:08;;;;;;;0.97;0.97;;;;;;;4.76;100.00;99726.38;5051217;28;20287;-74
2023/04/05 02:47:35;;;;;;;0.87;0.87;;;;;;;4.65;100.00;99723.47;5050931;28;20230;-74
2023/04/05 02:50:01;;;;;;;0.80;0.80;;;;;;;4.72;100.00;99714.28;5051468;28;20195;-74
2023/04/05 02:52:28;;;;;;;1.10;1.10;;;;;;;4.71;100.00;99702.28;5050747;28;20214;-74
2023/04/05 02:54:56;;;;;;;0.70;0.70;;;;;;;4.88;100.00;99719.09;5032245;28;20226;-74
2023/04/05 02:57:23;;;;;;;0.90;0.90;;;;;;;4.91;100.00;99726.88;5051007;28;20195;-74
2023/04/05 02:59:50;;;;;;;0.90;0.90;;;;;;;4.85;100.00;99721.56;5050740;28;20231;-74
2023/04/05 03:02:17;;;;;;;0.97;0.97;;;;;;;4.80;100.00;99725.66;5050659;28;20199;-74
2023/04/05 03:04:44;;;;;;;0.90;0.90;;;;;;;4.33;100.00;99640.31;5050092;28;20230;-74
2023/04/05 03:07:17;;;;;;;0.90;0.90;;;;;;;4.80;100.00;99728.25;5051297;28;20231;-75
2023/04/05 03:09:45;;;;;;;1.23;1.23;;;;;;;4.85;100.00;99727.53;5050757;28;20203;-73
2023/04/05 03:12:13;;;;;;;0.90;0.90;;;;;;;4.94;100.00;99737.25;5051311;28;20704;-74
2023/04/05 03:14:40;;;;;;;0.90;0.90;;;;;;;4.86;100.00;99728.44;5050521;28;20207;-75
2023/04/05 03:17:07;;;;;;;1.00;1.00;;;;;;;4.72;100.00;99729.69;5050639;28;20199;-74
2023/04/05 03:19:34;;;;;;;1.00;1.00;;;;;;;4.68;100.00;99727.84;5050412;28;20214;-74
2023/04/05 03:22:01;;;;;;;1.07;1.07;;;;;;;4.70;100.00;99726.22;5051305;28;20224;-74
2023/04/05 03:24:28;;;;;;;0.97;0.97;;;;;;;4.72;100.00;99734.81;5050690;28;20223;-74
2023/04/05 03:26:54;;;;;;;0.80;0.80;;;;;;;4.63;100.00;99734.53;5050973;28;20212;-75
2023/04/05 03:29:23;;;;;;;1.00;1.00;;;;;;;4.64;100.00;99714.03;5043152;28;20192;-75
2023/04/05 03:31:50;;;;;;;1.00;1.00;;;;;;;4.36;100.00;99678.00;5047110;28;20215;-75
2023/04/05 03:34:17;;;;;;;1.00;1.00;;;;;;;4.49;100.00;99710.97;5049414;28;20207;-75
2023/04/05 03:36:44;;;;;;;0.90;0.90;;;;;;;4.64;100.00;99726.84;5050219;28;20199;-74
2023/04/05 03:39:13;;;;;;;0.80;0.80;;;;;;;4.67;100.00;99732.13;5048662;28;20191;-73
2023/04/05 03:41:40;;;;;;;0.97;0.97;;;;;;;4.33;100.00;99706.16;5050975;28;20195;-74
2023/04/05 03:44:08;;;;;;;1.00;1.00;;;;;;;4.61;100.00;99733.59;5050489;28;20254;-74
2023/04/05 03:46:36;;;;;;;0.73;0.73;;;;;;;4.68;100.00;99735.53;5050414;28;20666;-74
2023/04/05 03:49:03;;;;;;;1.27;1.27;;;;;;;4.61;100.00;99741.28;5047783;28;20203;-74
2023/04/05 03:51:31;;;;;;;1.00;1.00;;;;;;;4.56;100.00;99735.16;5050390;28;20274;-74
2023/04/05 03:53:58;;;;;;;0.83;0.83;;;;;;;4.55;100.00;99748.81;5050453;28;20199;-75
2023/04/05 03:56:26;;;;;;;0.83;0.83;;;;;;;4.56;100.00;99741.16;5050307;28;20203;-74
2023/04/05 03:58:53;;;;;;;0.70;0.70;;;;;;;4.48;100.00;99715.25;5050374;28;20265;-74
2023/04/05 04:01:20;;;;;;;1.03;1.03;;;;;;;4.59;100.00;99742.94;5010489;28;20201;-75
2023/04/05 04:03:48;;;;;;;1.17;1.17;;;;;;;4.72;100.00;99747.66;5008606;28;20220;-74
2023/04/05 04:06:15;;;;;;;0.90;0.90;;;;;;;4.74;100.00;99753.72;5010989;28;20668;-74
2023/04/05 04:08:42;;;;;;;1.30;1.30;;;;;;;5.61;100.00;99713.56;4985141;28;20292;-75
2023/04/05 04:11:10;;;;;;;0.97;0.97;;;;;;;5.01;100.00;99741.75;5002195;28;20668;-76
2023/04/05 04:13:36;;;;;;;0.90;0.90;;;;;;;4.87;100.00;99761.88;5010519;28;20208;-76
2023/04/05 04:16:03;;;;;;;1.50;1.50;;;;;;;4.91;100.00;99757.72;5010300;28;20209;-76
2023/04/05 04:18:30;;;;;;;0.93;0.93;;;;;;;4.78;100.00;99761.56;5010541;28;20205;-75
2023/04/05 04:20:58;;;;;;;0.83;0.83;;;;;;;4.64;100.00;99741.41;5010992;28;20678;-75
2023/04/05 04:23:26;;;;;;;0.90;0.90;;;;;;;4.79;100.00;99757.31;5010801;28;20316;-75
2023/04/05 04:25:53;;;;;;;0.80;0.80;;;;;;;4.79;100.00;99758.19;5010843;28;20208;-76
2023/04/05 04:28:23;;;;;;;1.60;1.50;;;;;;;4.86;100.00;99756.69;5010682;28;20687;-75
2023/04/05 04:30:51;;;;;;;0.90;0.90;;;;;;;6.04;100.00;99721.69;5010747;28;20204;-75
2023/04/05 04:33:18;;;;;;;0.70;0.70;;;;;;;5.71;100.00;99731.00;5008581;28;20200;-75
2023/04/05 04:35:46;;;;;;;0.80;0.80;;;;;;;5.80;100.00;99742.44;4982859;28;20200;-75
2023/04/05 04:38:19;;;;;;;1.03;1.03;;;;;;;6.26;100.00;99770.34;5010631;28;20220;-74
2023/04/05 04:40:49;;;;;;;0.80;0.80;;;;;;;6.13;100.00;99778.56;5010557;28;20583;-75
2023/04/05 04:43:17;;;;;;;1.13;1.13;;;;;;;6.23;100.00;99753.94;5010852;28;20193;-75
2023/04/05 04:45:46;;;;;;;1.37;1.37;;;;;;;6.48;100.00;99777.81;5012064;28;20232;-75
2023/04/05 04:48:15;;;;;;;3.43;3.23;;;;;;;6.42;100.00;99774.22;5013749;28;20297;-75
2023/04/05 04:50:42;;;;;;;1.00;1.00;;;;;;;6.28;100.00;99765.22;5013735;28;20269;-75
2023/04/05 04:53:09;;;;;;;0.80;0.80;;;;;;;6.60;100.00;99766.09;5014007;28;20205;-74
2023/04/05 04:55:37;;;;;;;1.50;1.50;;;;;;;7.14;100.00;99788.03;5013267;28;20201;-74
2023/04/05 04:58:08;;;;;;;1.87;1.77;;;;;;;7.14;100.00;99761.38;4992792;28;20205;-75
2023/04/05 05:00:35;;;;;;;1.00;1.00;;;;;;;7.60;100.00;99794.28;5027757;28;20769;-75
2023/04/05 05:03:03;;;;;;;0.87;0.87;;;;;;;7.49;100.00;99776.81;5052928;28;20250;-75
2023/04/05 05:05:30;;;;;;;0.90;0.90;;;;;;;7.49;100.00;99796.63;5052814;28;20200;-74
2023/04/05 05:07:57;;;;;;;0.70;0.70;;;;;;;7.54;100.00;99739.94;5053459;28;20207;-74
2023/04/05 05:10:24;;;;;;;0.70;0.70;;;;;;;7.99;100.00;99798.56;5046671;28;20207;-75
2023/04/05 05:12:52;;;;;;;0.80;0.80;;;;;;;7.58;100.00;99799.38;5053174;28;20207;-76
2023/04/05 05:15:19;;;;;;;1.17;1.17;;;;;;;7.95;100.00;99803.63;5018096;28;20231;-76
2023/04/05 05:17:51;;;;;;;0.77;0.77;;;;;;;7.46;100.00;99797.41;5053216;28;20195;-74
2023/04/05 05:20:18;;;;;;;0.80;0.80;;;;;;;7.30;100.00;99800.47;5015477;28;20659;-76
2023/04/05 05:22:45;;;;;;;0.83;0.83;;;;;;;7.02;100.00;99799.78;5052837;28;20203;-78
2023/04/05 05:25:12;;;;;;;0.73;0.73;;;;;;;7.00;100.00;99797.16;5052726;28;20268;-75
2023/04/05 05:27:39;;;;;;;1.57;1.57;;;;;;;7.73;100.00;99780.78;5052511;28;20592;-76
2023/04/05 05:30:09;;;;;;;1.67;1.57;;;;;;;7.74;100.00;99803.19;5052963;28;20204;-72
2023/04/05 05:32:35;;;;;;;3.20;1.67;;;;;;;6.97;100.00;99802.22;5052503;28;20203;-76
2023/04/05 05:35:02;;;;;;;0.80;0.80;;;;;;;6.64;100.00;99804.81;5051721;28;20305;-75
2023/04/05 05:37:32;;;;;;;0.90;0.90;;;;;;;6.49;100.00;99800.13;5052403;28;20211;-76
2023/04/05 05:40:00;;;;;;;0.80;0.80;;;;;;;6.59;100.00;99800.41;5017821;28;20199;-74
2023/04/05 05:42:27;;;;;;;0.70;0.70;;;;;;;6.45;100.00;99802.63;5052748;28;20586;-76
2023/04/05 05:44:54;;;;;;;0.80;0.80;;;;;;;6.43;100.00;99779.38;5052419;28;20220;-76
2023/04/05 05:47:22;;;;;;;1.00;1.00;;;;;;;6.66;100.00;99807.44;5052829;28;20195;-75
2023/04/05 05:49:49;;;;;;;0.80;0.80;;;;;;;6.51;100.00;99807.03;5052439;28;20200;-76
2023/04/05 05:52:16;;;;;;;0.80;0.80;;;;;;;6.65;100.00;99806.56;5052793;28;20199;-76
2023/04/05 05:54:43;;;;;;;0.87;0.87;;;;;;;6.30;100.00;99777.31;5046871;28;20215;-76
2023/04/05 05:57:09;;;;;;;1.20;1.20;;;;;;;6.43;100.00;99799.97;5051630;28;20214;-76
2023/04/05 05:59:36;;;;;;;0.73;0.73;;;;;;;6.51;100.00;99797.63;5032881;28;20250;-75
2023/04/05 06:02:03;;;;;;;1.13;1.13;;;;;;;6.74;100.00;99786.19;5051927;28;20203;-76
2023/04/05 06:04:32;;;;;;;1.00;1.00;;;;;;;7.09;100.00;99809.41;5051841;28;20227;-75
2023/04/05 06:07:00;;;;;;;5.00;4.60;;;;;;;7.34;100.00;99810.03;5052497;28;20651;-76
2023/04/05 06:09:28;;;;;;;0.90;0.90;;;;;;;7.17;100.00;99811.31;5052667;28;20235;-76
2023/04/05 06:11:57;;;;;;;0.80;0.80;;;;;;;7.10;100.00;99798.28;5052226;28;20257;-76
2023/04/05 06:14:24;;;;;;;0.80;0.80;;;;;;;7.22;100.00;99806.28;5052365;28;20671;-75
2023/04/05 06:16:51;;;;;;;0.80;0.80;;;;;;;7.46;100.00;99830.94;5017094;28;20204;-76
2023/04/05 06:19:18;;;;;;;2.47;1.57;;;;;;;7.31;100.00;99833.13;5052358;28;20216;-76
2023/04/05 06:21:46;;;;;;;0.80;0.80;;;;;;;7.14;100.00;99820.69;5052036;28;20577;-76
2023/04/05 06:24:13;;;;;;;0.90;0.90;;;;;;;6.91;100.00;99830.44;5051964;28;20310;-75
2023/04/05 06:26:40;;;;;;;0.90;0.90;;;;;;;6.80;100.00;99734.84;5052218;28;20213;-75
2023/04/05 06:29:07;;;;;;;0.90;0.90;;;;;;;7.09;100.00;99809.41;5051842;28;20222;-75
2023/04/05 06:31:35;;;;;;;1.00;1.00;;;;;;;7.18;100.00;99820.81;5051502;28;20214;-74
2023/04/05 06:34:02;;;;;;;0.90;0.90;;;;;;;6.83;100.00;99803.59;5051340;28;20203;-75
2023/04/05 06:36:30;;;;;;;0.90;0.90;;;;;;;7.36;100.00;99828.09;5051260;28;20206;-74
2023/04/05 06:38:58;;;;;;;0.90;0.90;;;;;;;7.44;100.00;99832.63;5051241;28;20203;-73
2023/04/05 06:41:26;;;;;;;0.80;0.80;;;;;;;7.49;100.00;99823.25;5045246;28;20210;-74
2023/04/05 06:43:53;;;;;;;1.00;1.00;;;;;;;7.61;100.00;99830.41;5043670;28;20690;-74
2023/04/05 06:46:19;;;;;;;0.80;0.80;;;;;;;7.65;100.00;99845.13;5051205;28;20207;-74
2023/04/05 06:48:48;;;;;;;0.70;0.70;;;;;;;7.62;100.00;99849.34;5017383;28;20666;-75
2023/04/05 06:51:15;;;;;;;1.10;1.10;;;;;;;7.70;100.00;99851.28;5019418;28;20203;-72
2023/04/05 06:53:42;;;;;;;0.70;0.70;;;;;;;7.90;100.00;99854.28;5054657;28;20207;-73
2023/04/05 06:56:11;;;;;;;0.70;0.70;;;;;;;7.51;100.00;99840.47;5054359;28;20203;-74
2023/04/05 06:58:38;;;;;;;0.80;0.80;;;;;;;8.33;100.00;99844.06;5052434;28;20210;-72
2023/04/05 07:01:05;;;;;;;0.80;0.80;;;;;;;7.99;100.00;99862.22;5032296;28;20677;-71
2023/04/05 07:03:32;;;;;;;1.10;1.10;;;;;;;8.52;100.00;99862.50;5032235;28;20200;-73
2023/04/05 07:06:00;;;;;;;0.80;0.80;;;;;;;8.28;100.00;99870.56;5032308;28;20300;-74
2023/04/05 07:08:27;;;;;;;0.80;0.80;;;;;;;8.12;100.00;99848.75;5050541;28;20222;-72
2023/04/05 07:10:54;;;;;;;0.80;0.80;;;;;;;7.87;100.00;99857.69;4999558;28;20203;-73
2023/04/05 07:13:24;;;;;;;0.70;0.70;;;;;;;8.17;100.00;99880.69;5050538;28;20215;-74
2023/04/05 07:15:51;;;;;;;1.00;1.00;;;;;;;8.08;100.00;99865.00;5050552;28;20257;-73
2023/04/05 07:18:18;;;;;;;0.70;0.70;;;;;;;8.50;100.00;99866.75;5050828;28;20211;-75
2023/04/05 07:20:47;;;;;;;1.00;1.00;;;;;;;8.51;100.00;99876.25;5050402;28;20207;-73
2023/04/05 07:23:15;;;;;;;1.07;1.07;;;;;;;8.16;100.00;99805.78;5050567;28;20214;-74
2023/04/05 07:25:42;;;;;;;1.30;1.30;;;;;;;8.64;100.00;99883.38;5050438;28;20231;-74
2023/04/05 07:28:08;;;;;;;0.80;0.80;;;;;;;8.55;100.00;99876.34;5050704;28;20203;-75
2023/04/05 07:30:37;;;;;;;0.90;0.90;;;;;;;8.59;100.00;99874.69;5050488;28;20206;-74
2023/04/05 07:33:04;;;;;;;0.70;0.70;;;;;;;8.25;100.00;99824.91;5050497;28;20204;-75
2023/04/05 07:35:31;;;;;;;0.70;0.70;;;;;;;8.38;100.00;99883.75;5032271;28;20207;-74
2023/04/05 07:37:57;;;;;;;0.80;0.80;;;;;;;8.55;100.00;99883.22;5050274;28;20205;-74
2023/04/05 07:40:24;;;;;;;0.90;0.90;;;;;;;8.72;100.00;99863.75;5050502;28;20214;-74
2023/04/05 07:42:51;;;;;;;0.80;0.80;;;;;;;8.50;100.00;99887.41;5031635;28;20192;-74
2023/04/05 07:45:18;;;;;;;0.83;0.83;;;;;;;8.79;100.00;99891.44;5050330;28;20242;-73
2023/04/05 07:47:46;;;;;;;0.97;0.97;;;;;;;8.77;100.00;99872.47;5050277;28;20210;-73
2023/04/05 07:50:13;;;;;;;0.90;0.90;;;;;;;8.78;100.00;99874.19;5050465;28;20207;-74
2023/04/05 07:52:41;;;;;;;1.00;1.00;;;;;;;9.16;100.00;99883.53;5050202;28;20203;-74
2023/04/05 07:55:08;;;;;;;0.90;0.90;;;;;;;9.01;100.00;99867.72;5051342;28;20199;-76
2023/04/05 07:57:35;;;;;;;0.80;0.80;;;;;;;9.00;100.00;99893.53;5063226;28;20222;-75
2023/04/05 08:00:03;;;;;;;0.80;0.80;;;;;;;9.02;100.00;99886.72;5050143;28;20227;-75
2023/04/05 08:02:30;;;;;;;0.80;0.80;;;;;;;9.18;100.00;99887.00;5028256;28;20307;-75
2023/04/05 08:04:58;;;;;;;0.90;0.90;;;;;;;9.66;100.00;99888.66;5042039;28;20231;-73
2023/04/05 08:07:25;;;;;;;1.00;1.00;;;;;;;9.61;99.30;99872.16;5036307;28;20211;-74
2023/04/05 08:09:52;;;;;;;0.90;0.90;;;;;;;9.66;100.00;99888.66;5050357;28;20679;-76
2023/04/05 08:12:19;;;;;;;0.80;0.80;;;;;;;9.37;99.42;99870.94;5049956;28;20195;-75
2023/04/05 08:14:46;;;;;;;0.73;0.73;;;;;;;9.52;100.00;99883.25;5050090;28;20674;-74
2023/04/05 08:17:13;;;;;;;0.87;0.87;;;;;;;9.50;100.00;99894.41;5050402;28;20196;-74
2023/04/05 08:19:40;;;;;;;1.00;1.00;;;;;;;9.67;100.00;99895.53;5015437;28;20265;-73
2023/04/05 08:22:09;;;;;;;1.00;1.00;;;;;;;9.75;98.15;99896.53;5051903;28;20208;-74
2023/04/05 08:24:36;;;;;;;0.90;0.90;;;;;;;9.54;98.30;99903.97;5053816;28;20231;-73
2023/04/05 08:27:02;;;;;;;0.93;0.93;;;;;;;9.61;94.80;99895.47;5053829;28;20207;-73
2023/04/05 08:29:29;;;;;;;0.90;0.90;;;;;;;9.30;95.12;99892.38;5053530;28;20203;-75
2023/04/05 08:31:57;;;;;;;1.00;1.00;;;;;;;9.88;97.09;99896.75;5053817;28;20209;-76
2023/04/05 08:34:23;;;;;;;0.80;0.80;;;;;;;9.95;94.31;99902.91;5053766;28;20587;-76
2023/04/05 08:36:50;;;;;;;4.10;1.37;;;;;;;10.00;91.57;99901.22;5053805;28;20207;-75
2023/04/05 08:39:18;;;;;;;0.90;0.90;;;;;;;9.95;94.05;99905.50;5053658;28;20207;-75
2023/04/05 08:42:04;;;;;;;0.90;0.90;;;;;;;9.99;93.28;99878.75;5053625;28;20211;-75
2023/04/05 08:44:31;;;;;;;0.90;0.90;;;;;;;10.16;91.19;99913.59;5053170;28;20583;-71
2023/04/05 08:46:59;;;;;;;0.93;0.93;;;;;;;9.77;90.64;99879.34;5053567;28;20215;-74
2023/04/05 08:49:27;;;;;;;1.37;1.37;;;;;;;9.99;91.76;99915.03;5053486;28;20631;-74
2023/04/05 08:51:55;;;;;;;0.87;0.87;;;;;;;10.06;91.35;99890.94;5053262;28;20213;-73
2023/04/05 08:54:23;;;;;;;1.00;1.00;;;;;;;9.95;92.42;99921.88;5053245;28;20207;-73
2023/04/05 08:56:53;;;;;;;0.90;0.90;;;;;;;9.55;94.54;99896.25;5034708;28;20195;-71
2023/04/05 08:59:21;;;;;;;0.90;0.90;;;;;;;9.68;95.09;99899.88;5053416;28;20709;-74
2023/04/05 09:01:51;;;;;;;0.90;0.90;;;;;;;10.14;94.34;99925.66;5053047;28;20230;-74
2023/04/05 09:04:21;;;;;;;0.83;0.83;;;;;;;9.96;95.46;99922.75;5034843;28;20684;-74
2023/04/05 09:06:49;;;;;;;0.70;0.70;;;;;;;9.83;94.36;99908.78;5053041;28;20199;-76
2023/04/05 09:09:17;;;;;;;0.90;0.90;;;;;;;9.37;92.43;99893.34;5053105;28;20730;-74
2023/04/05 09:11:45;;;;;;;0.93;0.93;;;;;;;9.63;95.55;99928.28;5053379;28;20203;-76
2023/04/05 09:14:12;;;;;;;0.80;0.80;;;;;;;9.66;94.97;99923.19;5034879;28;20215;-76
2023/04/05 09:16:40;;;;;;;0.90;0.90;;;;;;;9.75;94.45;99914.66;5053188;28;20210;-76
2023/04/05 09:19:08;;;;;;;2.33;2.17;;;;;;;9.79;93.18;99929.41;5052780;28;20265;-75
2023/04/05 09:21:59;;;;;;;1.20;1.20;;;;;;;9.60;94.03;99919.59;5052749;28;20204;-75
2023/04/05 09:24:33;;;;;;;0.90;0.90;;;;;;;9.90;94.76;99912.31;5038889;28;20690;-75
2023/04/05 09:27:06;;;;;;;0.90;0.90;;;;;;;9.54;95.77;99906.56;5001604;28;20203;-74
2023/04/05 09:29:33;;;;;;;0.80;0.80;;;;;;;9.46;95.44;99919.38;5039015;28;20302;-75
2023/04/05 09:32:01;;;;;;;0.80;0.80;;;;;;;9.56;94.25;99921.25;5052512;28;20207;-76
2023/04/05 09:34:27;;;;;;;0.87;0.87;;;;;;;9.38;94.54;99920.97;5052952;28;20207;-75
2023/04/05 09:36:54;;;;;;;1.00;1.00;;;;;;;9.58;93.07;99921.31;5052980;28;20199;-75
2023/04/05 09:39:28;;;;;;;0.80;0.80;;;;;;;9.95;94.23;99921.03;5052900;28;20693;-75
2023/04/05 09:42:08;;;;;;;0.77;0.77;;;;;;;10.19;89.97;99905.88;5052823;28;20203;-75
2023/04/05 09:44:55;;;;;;;0.80;0.80;;;;;;;10.43;88.89;99915.69;5034178;28;20199;-75
2023/04/05 09:47:26;;;;;;;0.70;0.70;;;;;;;10.17;88.52;99930.00;5053371;28;20704;-76
2023/04/05 09:49:53;;;;;;;0.63;0.63;;;;;;;9.75;91.20;99901.72;5054375;28;20199;-77
2023/04/05 09:52:24;;;;;;;1.07;1.07;;;;;;;10.06;95.29;99918.59;5052492;28;20215;-76
2023/04/05 09:54:53;;;;;;;2.90;2.80;;;;;;;9.92;89.87;99927.03;5050734;28;20204;-76
2023/04/05 09:57:22;;;;;;;1.00;1.00;;;;;;;10.20;89.61;99924.88;5052189;28;20261;-75
2023/04/05 09:59:49;;;;;;;0.87;0.87;;;;;;;10.03;89.25;99914.22;5052217;28;20235;-76
2023/04/05 10:02:16;;;;;;;1.00;1.00;;;;;;;10.11;89.03;99912.63;5051969;28;20199;-76
2023/04/05 10:04:44;;;;;;;0.80;0.80;;;;;;;10.36;88.90;99914.72;5017308;28;20686;-76
2023/04/05 10:07:13;;;;;;;1.10;1.10;;;;;;;10.22;89.38;99926.63;5052135;28;20203;-71
2023/04/05 10:09:41;;;;;;;0.70;0.70;;;;;;;10.51;87.72;99928.75;5052094;28;20218;-70
2023/04/05 10:12:09;;;;;;;1.00;1.00;;;;;;;10.53;87.79;99921.84;5051747;28;20226;-76
2023/04/05 10:14:38;;;;;;;0.90;0.90;;;;;;;10.41;89.05;99933.81;5052044;28;20226;-76
2023/04/05 10:17:11;;;;;;;1.00;1.00;;;;;;;9.73;90.82;99908.59;5033289;28;20663;-75
2023/04/05 10:19:55;;;;;;;1.17;1.17;;;;;;;9.85;93.04;99921.72;5051549;28;20199;-75
2023/04/05 10:22:25;;;;;;;0.90;0.90;;;;;;;9.94;91.89;99914.09;5051638;28;20214;-74
2023/04/05 10:24:57;;;;;;;0.80;0.80;;;;;;;10.12;91.59;99909.19;5051731;28;20253;-76
2023/04/05 10:27:32;;;;;;;1.10;1.10;;;;;;;10.24;91.34;99916.28;5052002;28;20203;-76
2023/04/05 10:30:12;;;;;;;1.13;1.13;;;;;;;10.46;90.33;99915.72;5051999;28;20202;-77
2023/04/05 10:33:01;;;;;;;0.80;0.80;;;;;;;10.51;87.78;99908.88;5051978;28;20199;-76
2023/04/05 10:35:34;;;;;;;1.10;1.10;;;;;;;10.01;90.50;99908.16;5051646;28;20655;-76
2023/04/05 10:38:12;;;;;;;1.00;1.00;;;;;;;10.42;89.91;99911.34;5052077;28;20207;-74
2023/04/05 10:40:43;;;;;;;1.00;1.00;;;;;;;10.27;91.19;99909.41;5051300;28;20202;-74
2023/04/05 10:43:16;;;;;;;2.30;2.20;;;;;;;10.31;87.95;99916.38;5051170;28;20226;-74
2023/04/05 10:45:48;;;;;;;0.97;0.97;;;;;;;10.02;89.39;99883.13;5051188;28;20219;-73
2023/04/05 10:48:21;;;;;;;1.03;1.03;;;;;;;10.60;88.80;99908.09;5051440;28;20207;-74
2023/04/05 10:50:48;;;;;;;1.00;1.00;;;;;;;10.61;87.38;99921.09;5051466;28;20204;-76
2023/04/05 10:53:16;;;;;;;0.90;0.90;;;;;;;10.58;88.89;99920.19;5051130;28;20646;-74
2023/04/05 10:55:44;;;;;;;0.90;0.90;;;;;;;10.55;87.29;99909.78;5051325;28;20693;-74
2023/04/05 10:58:13;;;;;;;1.00;1.00;;;;;;;10.78;88.10;99916.09;5051278;28;20226;-75
2023/04/05 11:00:41;;;;;;;1.10;1.10;;;;;;;10.79;86.61;99907.47;5051901;28;20230;-75
2023/04/05 11:03:09;;;;;;;1.23;1.23;;;;;;;10.56;83.42;99909.78;5051604;28;20597;-75
2023/04/05 11:05:38;;;;;;;1.30;1.30;;;;;;;10.80;85.17;99896.25;5051635;28;20222;-75
2023/04/05 11:08:07;;;;;;;1.00;1.00;;;;;;;11.09;85.61;99913.00;5051583;28;20199;-74
2023/04/05 11:10:38;;;;;;;0.80;0.80;;;;;;;11.23;81.33;99908.81;5051002;28;20693;-74
2023/04/05 11:13:10;;;;;;;1.00;1.00;;;;;;;10.94;83.66;99886.91;5050675;28;20214;-75
2023/04/05 11:15:37;;;;;;;0.80;0.80;;;;;;;11.10;82.51;99909.53;5050872;28;20200;-74
2023/04/05 11:18:10;;;;;;;1.10;1.10;;;;;;;11.06;84.86;99899.13;5050739;28;20206;-74
2023/04/05 11:20:42;;;;;;;0.80;0.80;;;;;;;11.18;82.96;99915.66;5050672;28;20199;-74
2023/04/05 11:23:09;;;;;;;0.93;0.93;;;;;;;11.02;83.57;99903.41;5050740;28;20204;-74
2023/04/05 11:25:38;;;;;;;0.70;0.70;;;;;;;11.24;85.36;99905.34;5050766;28;20228;-74
2023/04/05 11:28:07;;;;;;;0.80;0.80;;;;;;;10.71;87.27;99903.91;5050802;28;20208;-74
2023/04/05 11:30:50;;;;;;;0.93;0.93;;;;;;;10.79;88.24;99908.34;5050596;28;20244;-74
2023/04/05 11:33:54;;;;;;;0.80;0.80;;;;;;;10.93;85.55;99906.78;5008910;28;20204;-74
2023/04/05 11:36:32;;;;;;;0.80;0.80;;;;;;;11.12;86.19;99905.25;5008841;28;20292;-75
2023/04/05 11:39:24;;;;;;;0.93;0.93;;;;;;;11.09;84.84;99904.34;5008669;28;20201;-76
2023/04/05 11:42:01;;;;;;;0.80;0.80;;;;;;;10.89;85.36;99902.41;5008604;28;20193;-73
2023/04/05 11:44:30;;;;;;;1.00;1.00;;;;;;;10.73;86.48;99902.22;5008871;28;20196;-73